createdAt,value
2022-08-30T00:01:26.663Z,61.63
2022-08-30T00:03:56.109Z,61.34
2022-08-30T00:06:24.609Z,61.46
2022-08-30T00:08:53.074Z,61.77
2022-08-30T00:11:24.675Z,62.04
2022-08-30T00:13:53.973Z,62.37
2022-08-30T00:16:23.423Z,62.61
2022-08-30T00:18:52.065Z,62.34
2022-08-30T00:21:20.394Z,62.36
2022-08-30T00:23:48.338Z,62.42
2022-08-30T00:26:16.179Z,62.31
2022-08-30T00:28:45.571Z,62.49
2022-08-30T00:31:15.421Z,62.29
2022-08-30T00:33:43.827Z,62.40
2022-08-30T00:36:11.774Z,62.20
2022-08-30T00:38:39.688Z,62.78
2022-08-30T00:41:07.830Z,62.90
2022-08-30T00:43:37.142Z,63.00
2022-08-30T00:46:08.711Z,63.20
2022-08-30T00:48:41.048Z,63.17
2022-08-30T00:51:12.899Z,63.21
2022-08-30T00:53:45.263Z,63.03
2022-08-30T00:56:13.892Z,63.11
2022-08-30T00:58:45.526Z,62.90
2022-08-30T01:01:15.221Z,62.96
2022-08-30T01:03:44.838Z,62.80
2022-08-30T01:06:15.227Z,63.11
2022-08-30T01:08:43.432Z,62.99
2022-08-30T01:11:12.427Z,62.96
2022-08-30T01:13:40.786Z,62.95
2022-08-30T01:16:09.650Z,63.28
2022-08-30T01:18:39.906Z,63.07
2022-08-30T01:21:16.421Z,63.22
2022-08-30T01:23:47.955Z,63.10
2022-08-30T01:26:17.432Z,63.02
2022-08-30T01:28:51.592Z,63.02
2022-08-30T01:31:19.865Z,63.14
2022-08-30T01:33:51.126Z,63.75
2022-08-30T01:36:23.085Z,63.80
2022-08-30T01:38:54.786Z,63.89
2022-08-30T01:41:25.273Z,63.83
2022-08-30T01:43:57.004Z,63.93
2022-08-30T01:46:28.777Z,64.19
2022-08-30T01:48:59.207Z,64.48
2022-08-30T01:51:29.572Z,64.44
2022-08-30T01:53:59.379Z,64.94
2022-08-30T01:56:29.463Z,64.58
2022-08-30T01:59:02.581Z,64.62
2022-08-30T02:01:32.859Z,64.35
2022-08-30T02:04:01.319Z,64.61
2022-08-30T02:06:29.847Z,64.94
2022-08-30T02:08:59.263Z,65.23
2022-08-30T02:11:30.083Z,65.01
2022-08-30T02:13:58.047Z,64.88
2022-08-30T02:16:26.880Z,65.07
2022-08-30T02:18:56.276Z,64.90
2022-08-30T02:21:24.832Z,65.16
2022-08-30T02:23:53.320Z,64.98
2022-08-30T02:26:23.256Z,65.04
2022-08-30T02:28:51.723Z,65.11
2022-08-30T02:31:21.139Z,65.14
2022-08-30T02:33:51.191Z,65.09
2022-08-30T02:36:20.789Z,65.67
2022-08-30T02:38:49.678Z,66.07
2022-08-30T02:41:18.071Z,65.97
2022-08-30T02:43:47.798Z,65.96
2022-08-30T02:46:15.842Z,66.28
2022-08-30T02:48:44.170Z,66.75
2022-08-30T02:51:15.173Z,66.80
2022-08-30T02:53:44.547Z,66.84
2022-08-30T02:56:13.403Z,66.63
2022-08-30T02:58:42.621Z,67.14
2022-08-30T03:01:14.258Z,67.38
2022-08-30T03:03:43.808Z,67.39
2022-08-30T03:06:12.277Z,67.12
2022-08-30T03:08:40.411Z,67.63
2022-08-30T03:11:08.698Z,67.32
2022-08-30T03:13:36.658Z,67.54
2022-08-30T03:16:04.689Z,67.44
2022-08-30T03:18:34.260Z,67.37
2022-08-30T03:21:02.224Z,67.25
2022-08-30T03:23:30.155Z,67.30
2022-08-30T03:25:58.573Z,67.29
2022-08-30T03:28:26.615Z,67.41
2022-08-30T03:30:54.752Z,68.03
2022-08-30T03:33:22.714Z,68.11
2022-08-30T03:35:52.131Z,68.05
2022-08-30T03:38:20.199Z,68.41
2022-08-30T03:40:48.275Z,67.84
2022-08-30T03:43:16.255Z,67.97
2022-08-30T03:45:44.824Z,68.19
2022-08-30T03:48:13.047Z,67.96
2022-08-30T03:50:41.517Z,68.00
2022-08-30T03:53:11.058Z,67.68
2022-08-30T03:55:38.950Z,67.65
2022-08-30T03:58:06.819Z,67.76
2022-08-30T04:00:34.774Z,67.71
2022-08-30T04:03:03.078Z,67.79
2022-08-30T04:05:31.080Z,68.37
2022-08-30T04:07:58.860Z,68.20
2022-08-30T04:10:28.053Z,68.38
2022-08-30T04:12:56.681Z,68.50
2022-08-30T04:15:24.446Z,68.51
2022-08-30T04:17:53.787Z,68.57
2022-08-30T04:20:22.266Z,68.67
2022-08-30T04:22:51.335Z,68.84
2022-08-30T04:25:19.433Z,68.78
2022-08-30T04:27:48.899Z,69.04
2022-08-30T04:30:18.572Z,69.01
2022-08-30T04:32:46.739Z,69.06
2022-08-30T04:35:15.432Z,69.15
2022-08-30T04:37:43.197Z,69.59
2022-08-30T04:40:11.906Z,69.67
2022-08-30T04:42:39.742Z,69.87
2022-08-30T04:45:12.457Z,69.74
2022-08-30T04:47:40.294Z,69.73
2022-08-30T04:50:09.306Z,69.75
2022-08-30T04:52:37.154Z,69.82
2022-08-30T04:55:06.397Z,69.70
2022-08-30T04:57:34.290Z,69.52
2022-08-30T05:00:02.010Z,69.65
2022-08-30T05:02:31.464Z,69.42
2022-08-30T05:05:16.474Z,69.29
2022-08-30T05:07:44.227Z,69.15
2022-08-30T05:10:11.959Z,69.33
2022-08-30T05:12:39.728Z,69.56
2022-08-30T05:15:08.809Z,69.41
2022-08-30T05:17:40.237Z,69.42
2022-08-30T05:20:10.320Z,69.50
2022-08-30T05:22:38.753Z,69.76
2022-08-30T05:25:07.603Z,69.85
2022-08-30T05:27:36.817Z,69.82
2022-08-30T05:30:06.202Z,69.96
2022-08-30T05:32:33.971Z,70.03
2022-08-30T05:35:03.258Z,70.10
2022-08-30T05:37:30.978Z,70.12
2022-08-30T05:39:59.307Z,69.95
2022-08-30T05:42:27.063Z,69.87
2022-08-30T05:44:55.903Z,69.98
2022-08-30T05:47:23.961Z,69.81
2022-08-30T05:49:51.949Z,69.68
2022-08-30T05:52:21.187Z,69.79
2022-08-30T05:54:55.200Z,69.49
2022-08-30T05:57:23.444Z,69.60
2022-08-30T05:59:51.236Z,69.50
2022-08-30T06:02:19.107Z,69.75
2022-08-30T06:04:46.838Z,69.75
2022-08-30T06:07:15.888Z,69.75
2022-08-30T06:09:46.345Z,69.73
2022-08-30T06:12:14.058Z,69.40
2022-08-30T06:14:41.983Z,69.20
2022-08-30T06:17:10.633Z,68.99
2022-08-30T06:19:38.345Z,68.35
2022-08-30T06:22:06.508Z,68.12
2022-08-30T06:24:56.432Z,68.00
2022-08-30T06:27:25.353Z,67.98
2022-08-30T06:29:53.706Z,68.08
2022-08-30T06:32:21.392Z,68.21
2022-08-30T06:34:49.740Z,68.23
2022-08-30T06:37:29.118Z,67.95
2022-08-30T06:39:58.456Z,68.29
2022-08-30T06:42:31.895Z,68.31
2022-08-30T06:45:00.724Z,68.42
2022-08-30T06:47:29.101Z,68.22
2022-08-30T06:49:57.205Z,68.50
2022-08-30T06:52:25.177Z,68.02
2022-08-30T06:54:54.384Z,68.09
2022-08-30T06:57:22.365Z,67.78
2022-08-30T06:59:56.652Z,67.68
2022-08-30T07:02:25.992Z,67.80
2022-08-30T07:04:53.767Z,67.90
2022-08-30T07:07:21.560Z,67.99
2022-08-30T07:09:49.276Z,67.76
2022-08-30T07:12:17.577Z,67.92
2022-08-30T07:14:45.294Z,67.57
2022-08-30T07:17:34.732Z,67.28
2022-08-30T07:20:03.318Z,67.12
2022-08-30T07:22:31.094Z,66.61
2022-08-30T07:24:58.856Z,66.99
2022-08-30T07:27:26.835Z,66.78
2022-08-30T07:29:54.660Z,66.82
2022-08-30T07:32:23.763Z,66.24
2022-08-30T07:34:51.777Z,66.13
2022-08-30T07:37:19.609Z,65.82
2022-08-30T07:39:48.171Z,65.52
2022-08-30T07:42:16.260Z,65.72
2022-08-30T07:44:43.965Z,65.38
2022-08-30T07:47:12.130Z,65.62
2022-08-30T07:49:41.250Z,65.27
2022-08-30T07:52:09.225Z,64.95
2022-08-30T07:54:37.042Z,64.94
2022-08-30T07:57:04.835Z,64.49
2022-08-30T07:59:35.615Z,64.48
2022-08-30T08:02:04.659Z,64.19
2022-08-30T08:04:33.192Z,64.07
2022-08-30T08:07:02.620Z,64.00
2022-08-30T08:09:30.518Z,63.80
2022-08-30T08:11:58.278Z,63.26
2022-08-30T08:14:26.166Z,63.09
2022-08-30T08:16:53.909Z,62.96
2022-08-30T08:19:21.662Z,62.78
2022-08-30T08:21:55.708Z,62.57
2022-08-30T08:24:38.849Z,62.27
2022-08-30T08:27:06.984Z,62.23
2022-08-30T08:29:34.798Z,61.90
2022-08-30T08:32:02.701Z,61.66
2022-08-30T08:34:30.518Z,61.66
2022-08-30T08:36:58.233Z,61.37
2022-08-30T08:39:25.964Z,61.70
2022-08-30T08:42:09.213Z,61.25
2022-08-30T08:44:54.353Z,61.11
2022-08-30T08:47:26.688Z,60.04
2022-08-30T08:49:59.295Z,60.13
2022-08-30T08:52:49.421Z,59.86
2022-08-30T08:55:22.176Z,59.73
2022-08-30T08:57:52.388Z,59.13
2022-08-30T09:00:20.595Z,59.22
2022-08-30T09:02:55.853Z,59.17
2022-08-30T09:05:26.937Z,58.56
2022-08-30T09:08:01.690Z,58.12
2022-08-30T09:10:49.512Z,58.10
2022-08-30T09:13:22.717Z,57.65
2022-08-30T09:15:54.819Z,58.20
2022-08-30T09:18:42.019Z,57.75
2022-08-30T09:21:14.619Z,57.82
2022-08-30T09:23:50.549Z,57.60
2022-08-30T09:26:34.089Z,56.97
2022-08-30T09:29:05.134Z,56.94
2022-08-30T09:31:46.960Z,56.29
2022-08-30T09:34:19.759Z,56.32
2022-08-30T09:36:51.407Z,55.53
2022-08-30T09:39:20.952Z,55.85
2022-08-30T09:41:51.067Z,55.42
2022-08-30T09:44:24.092Z,54.99
2022-08-30T09:46:53.811Z,54.43
2022-08-30T09:49:34.075Z,54.63
2022-08-30T09:52:19.252Z,53.99
2022-08-30T09:55:04.188Z,54.38
2022-08-30T09:57:40.787Z,53.56
2022-08-30T10:00:18.451Z,53.90
2022-08-30T10:03:00.027Z,53.56
2022-08-30T10:05:36.389Z,52.50
2022-08-30T10:08:14.389Z,53.45
2022-08-30T10:10:48.831Z,53.13
2022-08-30T10:13:33.784Z,52.87
2022-08-30T10:16:14.880Z,51.96
2022-08-30T10:18:53.211Z,52.15
2022-08-30T10:21:27.443Z,51.60
2022-08-30T10:24:00.128Z,50.44
2022-08-30T10:26:30.764Z,50.69
2022-08-30T10:29:05.170Z,50.20
2022-08-30T10:31:40.789Z,50.47
2022-08-30T10:34:16.056Z,50.02
2022-08-30T10:36:50.070Z,49.45
2022-08-30T10:39:26.741Z,49.16
2022-08-30T10:42:06.299Z,49.79
2022-08-30T10:44:39.289Z,49.39
2022-08-30T10:47:23.818Z,48.82
2022-08-30T10:49:58.635Z,48.66
2022-08-30T10:52:32.363Z,47.90
2022-08-30T10:55:03.630Z,47.98
2022-08-30T10:57:31.632Z,48.58
2022-08-30T11:00:06.018Z,48.95
2022-08-30T11:03:09.818Z,48.08
2022-08-30T11:06:15.512Z,47.58
2022-08-30T11:09:03.223Z,47.12
2022-08-30T11:11:42.905Z,47.25
2022-08-30T11:14:15.281Z,46.44
2022-08-30T11:16:46.795Z,46.83
2022-08-30T11:19:22.340Z,47.17
2022-08-30T11:21:51.974Z,46.96
2022-08-30T11:24:22.460Z,46.76
2022-08-30T11:27:08.204Z,46.53
2022-08-30T11:29:42.326Z,46.39
2022-08-30T11:32:39.101Z,45.49
2022-08-30T11:35:11.181Z,45.25
2022-08-30T11:37:42.491Z,45.98
2022-08-30T11:40:32.928Z,46.13
2022-08-30T11:43:43.075Z,45.74
2022-08-30T11:46:19.471Z,45.63
2022-08-30T11:48:55.238Z,44.97
2022-08-30T11:52:23.899Z,45.01
2022-08-30T11:55:00.110Z,45.31
2022-08-30T11:57:35.289Z,45.06
2022-08-30T12:00:12.073Z,44.47
2022-08-30T12:02:56.397Z,44.11
2022-08-30T12:05:55.082Z,44.22
2022-08-30T12:08:57.898Z,42.86
2022-08-30T12:12:02.485Z,43.07
2022-08-30T12:14:51.992Z,42.69
2022-08-30T12:17:46.002Z,42.97
2022-08-30T12:20:22.607Z,42.32
2022-08-30T12:22:51.862Z,41.65
2022-08-30T12:25:26.351Z,42.31
2022-08-30T12:28:10.761Z,42.09
2022-08-30T12:30:40.993Z,42.20
2022-08-30T12:33:15.287Z,42.32
2022-08-30T12:35:45.494Z,41.96
2022-08-30T12:38:19.277Z,42.61
2022-08-30T12:40:57.986Z,42.60
2022-08-30T12:43:38.908Z,41.71
2022-08-30T12:46:15.384Z,41.45
2022-08-30T12:48:46.929Z,41.71
2022-08-30T12:51:38.209Z,41.65
2022-08-30T12:54:10.042Z,41.50
2022-08-30T12:56:56.223Z,41.73
2022-08-30T12:59:52.943Z,41.35
2022-08-30T13:02:23.782Z,41.29
2022-08-30T13:04:54.691Z,41.58
2022-08-30T13:07:32.647Z,40.82
2022-08-30T13:10:12.012Z,40.96
2022-08-30T13:12:40.478Z,40.61
2022-08-30T13:15:16.552Z,40.27
2022-08-30T13:17:44.523Z,40.75
2022-08-30T13:20:26.023Z,40.35
2022-08-30T13:23:09.245Z,41.07
2022-08-30T13:25:39.399Z,40.93
2022-08-30T13:28:09.154Z,40.63
2022-08-30T13:30:38.483Z,40.29
2022-08-30T13:33:06.449Z,40.48
2022-08-30T13:35:35.893Z,40.57
2022-08-30T13:38:04.291Z,40.73
2022-08-30T13:40:32.526Z,40.42
2022-08-30T13:43:01.067Z,40.79
2022-08-30T13:45:44.447Z,40.45
2022-08-30T13:48:16.116Z,40.43
2022-08-30T13:50:47.139Z,41.07
2022-08-30T13:53:51.216Z,40.96
2022-08-30T13:56:06.408Z,40.75
2022-08-30T13:58:35.356Z,40.24
2022-08-30T14:01:03.524Z,40.05
2022-08-30T14:03:31.496Z,39.28
2022-08-30T14:06:29.299Z,39.66
2022-08-30T14:08:53.541Z,39.85
2022-08-30T14:11:25.780Z,39.65
2022-08-30T14:16:46.578Z,39.26
2022-08-30T14:19:16.689Z,39.75
2022-08-30T14:21:49.152Z,39.90
2022-08-30T14:24:19.904Z,39.84
2022-08-30T14:26:51.497Z,39.58
2022-08-30T14:29:22.867Z,39.55
2022-08-30T14:31:52.432Z,38.71
2022-08-30T14:34:24.145Z,38.98
2022-08-30T14:36:53.933Z,39.12
2022-08-30T14:39:23.441Z,39.04
2022-08-30T14:41:53.711Z,38.94
2022-08-30T14:44:23.597Z,38.57
2022-08-30T14:46:52.040Z,38.34
2022-08-30T14:49:21.897Z,38.26
2022-08-30T14:51:51.504Z,38.76
2022-08-30T14:54:23.559Z,38.33
2022-08-30T14:56:53.850Z,38.19
2022-08-30T14:59:22.798Z,37.88
2022-08-30T15:01:50.856Z,38.76
2022-08-30T15:04:21.438Z,38.48
2022-08-30T15:06:50.923Z,38.39
2022-08-30T15:09:23.751Z,38.14
2022-08-30T15:11:53.508Z,38.03
2022-08-30T15:14:23.694Z,38.19
2022-08-30T15:16:54.535Z,37.80
2022-08-30T15:19:23.210Z,37.87
2022-08-30T15:21:52.044Z,37.95
2022-08-30T15:24:29.287Z,37.73
2022-08-30T15:26:59.539Z,37.69
2022-08-30T15:29:30.581Z,38.39
2022-08-30T15:32:01.304Z,37.60
2022-08-30T15:34:29.914Z,37.53
2022-08-30T15:36:58.771Z,37.61
2022-08-30T15:39:29.171Z,37.82
2022-08-30T15:42:00.978Z,37.43
2022-08-30T15:44:29.458Z,37.33
2022-08-30T15:46:57.436Z,37.56
2022-08-30T15:49:26.021Z,37.06
2022-08-30T15:51:54.721Z,37.49
2022-08-30T15:54:24.908Z,37.75
2022-08-30T15:56:59.607Z,37.64
2022-08-30T15:59:28.865Z,37.46
2022-08-30T16:01:57.886Z,38.15
2022-08-30T16:04:26.276Z,38.12
2022-08-30T16:06:54.358Z,38.13
2022-08-30T16:09:22.772Z,38.37
2022-08-30T16:11:50.727Z,38.33
2022-08-30T16:14:19.841Z,38.69
2022-08-30T16:16:47.702Z,38.60
2022-08-30T16:19:15.921Z,38.30
2022-08-30T16:21:44.111Z,38.19
2022-08-30T16:24:14.184Z,38.15
2022-08-30T16:26:43.455Z,38.40
2022-08-30T16:29:13.102Z,38.11
2022-08-30T16:31:44.603Z,38.34
2022-08-30T16:34:13.714Z,38.67
2022-08-30T16:36:41.493Z,38.83
2022-08-30T16:39:12.670Z,38.55
2022-08-30T16:41:40.968Z,38.83
2022-08-30T16:44:09.182Z,38.77
2022-08-30T16:46:40.289Z,38.85
2022-08-30T16:49:10.619Z,38.49
2022-08-30T16:51:39.406Z,38.62
2022-08-30T16:54:09.000Z,38.96
2022-08-30T16:56:37.855Z,39.00
2022-08-30T16:59:10.861Z,39.02
2022-08-30T17:01:42.136Z,39.23
2022-08-30T17:04:12.987Z,39.38
2022-08-30T17:06:46.439Z,39.61
2022-08-30T17:09:15.136Z,39.46
2022-08-30T17:11:43.495Z,39.22
2022-08-30T17:14:11.377Z,39.50
2022-08-30T17:16:39.537Z,39.00
2022-08-30T17:19:09.441Z,39.00
2022-08-30T17:21:38.837Z,39.21
2022-08-30T17:24:06.992Z,39.40
2022-08-30T17:26:37.217Z,39.47
2022-08-30T17:29:06.183Z,39.75
2022-08-30T17:31:36.079Z,39.60
2022-08-30T17:34:06.214Z,39.94
2022-08-30T17:36:36.395Z,39.79
2022-08-30T17:39:11.033Z,40.16
2022-08-30T17:41:40.027Z,40.03
2022-08-30T17:44:13.550Z,39.90
2022-08-30T17:46:41.387Z,40.02
2022-08-30T17:49:10.456Z,40.20
2022-08-30T17:51:40.827Z,40.33
2022-08-30T17:54:11.965Z,40.45
2022-08-30T17:56:40.110Z,40.40
2022-08-30T18:01:56.412Z,40.44
2022-08-30T18:04:25.322Z,40.68
2022-08-30T18:06:53.399Z,40.77
2022-08-30T18:09:23.031Z,40.93
2022-08-30T18:11:51.647Z,40.79
2022-08-30T18:14:19.829Z,41.38
2022-08-30T18:16:53.522Z,41.32
2022-08-30T18:19:22.863Z,41.50
2022-08-30T18:21:50.668Z,41.38
2022-08-30T18:24:19.046Z,41.65
2022-08-30T18:26:48.322Z,41.72
2022-08-30T18:29:29.486Z,41.42
2022-08-30T18:31:59.480Z,41.95
2022-08-30T18:34:27.338Z,41.87
2022-08-30T18:36:55.094Z,41.87
2022-08-30T18:39:23.015Z,41.98
2022-08-30T18:41:52.872Z,41.79
2022-08-30T18:44:33.225Z,41.92
2022-08-30T18:47:03.933Z,41.83
2022-08-30T18:49:33.987Z,42.05
2022-08-30T18:52:02.284Z,42.23
2022-08-30T18:54:31.141Z,42.43
2022-08-30T18:57:00.276Z,42.54
2022-08-30T18:59:35.279Z,42.37
2022-08-30T19:02:05.332Z,42.65
2022-08-30T19:04:35.731Z,42.54
2022-08-30T19:07:05.914Z,42.68
2022-08-30T19:09:34.631Z,42.84
2022-08-30T19:12:04.218Z,43.00
2022-08-30T19:14:37.258Z,43.10
2022-08-30T19:17:07.136Z,42.99
2022-08-30T19:19:36.868Z,43.37
2022-08-30T19:22:14.046Z,43.43
2022-08-30T19:24:42.638Z,43.61
2022-08-30T19:27:12.597Z,43.79
2022-08-30T19:29:40.596Z,43.75
2022-08-30T19:32:08.398Z,43.83
2022-08-30T19:34:37.987Z,43.84
2022-08-30T19:37:05.845Z,44.11
2022-08-30T19:39:34.595Z,44.21
2022-08-30T19:42:02.583Z,44.25
2022-08-30T19:44:31.682Z,44.28
2022-08-30T19:46:59.875Z,44.27
2022-08-30T19:49:27.562Z,44.40
2022-08-30T19:51:55.388Z,44.45
2022-08-30T19:54:23.077Z,44.52
2022-08-30T19:56:52.045Z,44.69
2022-08-30T19:59:20.393Z,44.78
2022-08-30T20:01:50.608Z,44.91
2022-08-30T20:04:18.571Z,45.19
2022-08-30T20:06:46.300Z,45.31
2022-08-30T20:09:14.247Z,45.45
2022-08-30T20:11:42.841Z,45.49
2022-08-30T20:14:10.997Z,45.63
2022-08-30T20:16:41.513Z,45.64
2022-08-30T20:19:13.694Z,45.94
2022-08-30T20:24:26.361Z,40.66
2022-08-30T20:24:28.981Z,45.90
2022-08-30T20:26:57.429Z,46.30
2022-08-30T20:29:25.207Z,46.25
2022-08-30T20:31:52.930Z,46.38
2022-08-30T20:34:27.239Z,46.41
2022-08-30T20:36:55.338Z,46.56
2022-08-30T20:39:23.873Z,46.47
2022-08-30T20:41:52.134Z,46.46
2022-08-30T20:44:19.911Z,46.48
2022-08-30T20:46:49.454Z,46.66
2022-08-30T20:49:17.540Z,46.54
2022-08-30T20:51:52.299Z,46.63
2022-08-30T20:54:20.815Z,46.80
2022-08-30T20:56:49.968Z,46.79
2022-08-30T20:59:17.811Z,46.89
2022-08-30T21:01:46.018Z,46.95
2022-08-30T21:04:13.882Z,47.10
2022-08-30T21:06:41.706Z,47.03
2022-08-30T21:09:10.769Z,47.04
2022-08-30T21:11:39.306Z,46.91
2022-08-30T21:14:12.666Z,46.88
2022-08-30T21:16:40.442Z,46.75
2022-08-30T21:19:08.311Z,46.88
2022-08-30T21:21:36.059Z,46.82
2022-08-30T21:24:06.771Z,46.91
2022-08-30T21:26:36.279Z,47.08
2022-08-30T21:29:04.899Z,47.08
2022-08-30T21:31:32.744Z,47.13
2022-08-30T21:34:00.651Z,47.18
2022-08-30T21:36:45.883Z,47.32
2022-08-30T21:39:16.900Z,47.46
2022-08-30T21:41:47.160Z,47.47
2022-08-30T21:44:16.664Z,47.60
2022-08-30T21:46:44.648Z,47.66
2022-08-30T21:49:14.823Z,47.74
2022-08-30T21:51:45.118Z,47.83
2022-08-30T21:54:14.857Z,47.85
2022-08-30T21:56:44.752Z,48.14
2022-08-30T21:59:14.209Z,48.44
2022-08-30T22:01:43.533Z,48.56
2022-08-30T22:04:12.808Z,48.50
2022-08-30T22:06:42.715Z,48.77
2022-08-30T22:09:14.427Z,48.88
2022-08-30T22:11:43.527Z,48.92
2022-08-30T22:14:14.635Z,48.96
2022-08-30T22:16:44.617Z,49.15
2022-08-30T22:19:13.135Z,49.18
2022-08-30T22:21:42.825Z,49.17
2022-08-30T22:24:12.388Z,49.55
2022-08-30T22:26:40.838Z,49.82
2022-08-30T22:29:09.819Z,49.86
2022-08-30T22:31:41.511Z,49.91
2022-08-30T22:34:11.073Z,50.07
2022-08-30T22:36:39.363Z,50.02
2022-08-30T22:39:09.724Z,50.09
2022-08-30T22:41:38.567Z,50.38
2022-08-30T22:44:06.578Z,50.39
2022-08-30T22:46:35.905Z,50.75
2022-08-30T22:49:06.777Z,50.99
2022-08-30T22:51:34.910Z,50.91
2022-08-30T22:54:04.621Z,51.00
2022-08-30T22:56:34.831Z,51.09
2022-08-30T22:59:03.437Z,51.51
2022-08-30T23:01:33.232Z,51.80
2022-08-30T23:04:02.113Z,51.90
2022-08-30T23:06:31.698Z,52.02
2022-08-30T23:08:59.439Z,52.40
2022-08-30T23:11:27.490Z,52.30
2022-08-30T23:13:57.323Z,52.37
2022-08-30T23:20:40.016Z,52.97
2022-08-30T23:23:07.994Z,53.37
2022-08-30T23:25:53.280Z,53.29
2022-08-30T23:28:39.783Z,53.63
2022-08-30T23:31:30.092Z,53.84
2022-08-30T23:34:16.407Z,54.57
2022-08-30T23:37:02.059Z,54.51
2022-08-30T23:39:49.324Z,54.80
2022-08-30T23:42:34.863Z,54.62
2022-08-30T23:45:20.239Z,55.29
2022-08-30T23:48:05.494Z,55.11
2022-08-30T23:50:50.638Z,55.62
2022-08-30T23:53:35.725Z,55.50
2022-08-30T23:56:22.365Z,55.78
2022-08-30T23:59:07.779Z,56.01
